Time;durP1;ratioP1;P1;durP2;ratioP2;P2;SDS_P1;SDS_P2;PMS_P1;PMS_P2;Temp;Humidity;BMP_temperature;BMP_pressure;BME280_temperature;BME280_humidity;BME280_pressure;Samples;Min_cycle;Max_cycle;Signal;HPM_P1;HPM_P2
2024/03/12 00:00:13;;;;;;;1.10;1.00;;;;;;;1.73;100.00;92570.81;2106979;28;20028;-88
2024/03/12 00:01:19;;;;;;;1.00;0.90;;;;;;;1.65;100.00;92570.03;2095988;28;20028;-87
2024/03/12 00:02:20;;;;;;;3.65;1.02;;;;;;;1.64;100.00;92571.16;2091103;28;20442;-86
2024/03/12 00:03:21;;;;;;;1.10;1.00;;;;;;;1.59;100.00;92576.03;2089942;28;20079;-88
2024/03/12 00:04:22;;;;;;;0.80;0.80;;;;;;;1.58;100.00;92579.78;2089173;28;20112;-85
2024/03/12 00:05:23;;;;;;;1.90;1.20;;;;;;;1.61;100.00;92579.03;2098565;28;20028;-83
2024/03/12 00:06:25;;;;;;;0.88;0.88;;;;;;;1.57;100.00;92573.75;2098692;28;20365;-86
2024/03/12 00:07:30;;;;;;;4.00;0.90;;;;;;;1.53;100.00;92588.78;2106704;28;20036;-84
2024/03/12 00:08:32;;;;;;;1.15;1.00;;;;;;;1.41;100.00;92582.00;2106774;28;20054;-85
2024/03/12 00:09:37;;;;;;;1.13;1.00;;;;;;;1.57;100.00;92573.75;2090310;28;20525;-84
2024/03/12 00:10:38;;;;;;;1.30;1.05;;;;;;;1.59;100.00;92581.31;2091300;28;20028;-86
2024/03/12 00:11:42;;;;;;;1.27;1.17;;;;;;;1.47;100.00;92585.03;2093409;28;20505;-83
2024/03/12 00:12:47;;;;;;;1.15;1.02;;;;;;;1.51;100.00;92581.28;2105314;28;20020;-86
2024/03/12 00:13:48;;;;;;;1.02;0.90;;;;;;;1.49;100.00;92578.28;2100155;28;20065;-86
2024/03/12 00:14:49;;;;;;;1.00;0.90;;;;;;;1.38;100.00;92576.72;2098474;28;20082;-85
2024/03/12 00:15:50;;;;;;;1.85;1.08;;;;;;;1.35;100.00;92583.47;2115215;28;20425;-88
2024/03/12 00:16:51;;;;;;;1.85;0.90;;;;;;;1.31;100.00;92579.31;2106661;28;20024;-84
2024/03/12 00:17:53;;;;;;;1.05;0.95;;;;;;;1.31;100.00;92582.69;2090158;28;20020;-84
2024/03/12 00:18:55;;;;;;;1.10;1.00;;;;;;;1.37;100.00;92581.22;2098958;28;20089;-88
2024/03/12 00:19:56;;;;;;;1.17;1.08;;;;;;;1.28;100.00;92580.81;2098382;28;20024;-89
2024/03/12 00:20:58;;;;;;;1.10;1.10;;;;;;;1.48;100.00;92581.25;2090231;28;20055;-84
2024/03/12 00:21:59;;;;;;;3.83;0.93;;;;;;;1.39;100.00;92576.34;2104247;28;20092;-86
2024/03/12 00:23:01;;;;;;;1.42;1.10;;;;;;;1.26;100.00;92577.78;2098327;28;20025;-86
2024/03/12 00:24:04;;;;;;;1.15;1.05;;;;;;;1.19;100.00;92578.53;2098516;28;20103;-89
2024/03/12 00:25:08;;;;;;;1.88;0.90;;;;;;;1.21;100.00;92578.16;2106980;28;20024;-84
2024/03/12 00:26:10;;;;;;;1.80;1.10;;;;;;;1.18;100.00;92582.25;2098525;28;20108;-84
2024/03/12 00:27:14;;;;;;;1.10;1.00;;;;;;;1.06;100.00;92584.47;2097808;28;20036;-85
2024/03/12 00:28:16;;;;;;;1.30;1.00;;;;;;;1.05;100.00;92583.69;2098685;28;20128;-88
2024/03/12 00:29:19;;;;;;;0.70;0.70;;;;;;;1.04;100.00;92586.72;2106990;28;20027;-87
2024/03/12 00:30:24;;;;;;;2.60;0.90;;;;;;;1.08;100.00;92579.59;2114970;28;20031;-85
2024/03/12 00:31:25;;;;;;;0.90;0.90;;;;;;;1.15;100.00;92577.75;2108109;27;20187;-85
2024/03/12 00:32:26;;;;;;;0.80;0.80;;;;;;;1.09;100.00;92581.84;2114938;27;20031;-87
2024/03/12 00:33:29;;;;;;;1.10;1.00;;;;;;;1.12;100.00;92599.53;2102979;28;20118;-87
2024/03/12 00:34:30;;;;;;;2.25;0.95;;;;;;;0.93;100.00;92591.91;2089071;28;20029;-86
2024/03/12 00:35:32;;;;;;;0.80;0.80;;;;;;;1.04;100.00;92589.34;2089937;28;20493;-86
2024/03/12 00:36:33;;;;;;;1.98;1.20;;;;;;;1.09;100.00;92586.34;2090836;28;20025;-86
2024/03/12 00:37:34;;;;;;;1.38;0.90;;;;;;;1.07;100.00;92593.88;2104979;28;20020;-87
2024/03/12 00:38:37;;;;;;;1.17;1.00;;;;;;;1.07;100.00;92588.59;2102911;28;20031;-84
2024/03/12 00:39:38;;;;;;;1.10;1.00;;;;;;;1.13;100.00;92587.13;2103347;28;20034;-87
2024/03/12 00:40:41;;;;;;;1.25;1.00;;;;;;;1.22;100.00;92588.28;2098307;28;20040;-86
2024/03/12 00:41:41;;;;;;;1.42;1.17;;;;;;;1.08;100.00;92588.22;2098544;28;20024;-86
2024/03/12 00:42:43;;;;;;;1.25;1.15;;;;;;;1.11;100.00;92595.41;2112416;28;20487;-85
2024/03/12 00:43:45;;;;;;;1.67;1.27;;;;;;;0.95;100.00;92593.03;2109561;28;20039;-85
2024/03/12 00:44:48;;;;;;;1.70;1.60;;;;;;;0.99;100.00;92591.19;2106539;28;20027;-87
2024/03/12 00:45:49;;;;;;;1.50;1.40;;;;;;;0.93;100.00;92592.69;2107133;28;20028;-85
2024/03/12 00:46:52;;;;;;;1.60;1.50;;;;;;;0.96;100.00;92601.69;2098093;28;20020;-86
2024/03/12 00:47:53;;;;;;;1.40;1.30;;;;;;;1.07;100.00;92589.34;2105342;28;20036;-88
2024/03/12 00:48:54;;;;;;;1.58;1.30;;;;;;;1.02;100.00;92594.97;2106474;28;20168;-85
2024/03/12 00:49:55;;;;;;;1.40;1.30;;;;;;;1.06;100.00;92606.28;2098167;28;20029;-87
2024/03/12 00:50:57;;;;;;;1.50;1.30;;;;;;;0.96;100.00;92599.06;2104984;28;20491;-88
2024/03/12 00:51:58;;;;;;;1.40;1.30;;;;;;;1.03;100.00;92604.38;2114267;28;20058;-88
2024/03/12 00:53:01;;;;;;;1.40;1.30;;;;;;;1.07;100.00;92599.88;2106004;28;20400;-88
2024/03/12 00:54:04;;;;;;;1.35;1.25;;;;;;;1.02;100.00;92602.13;2123398;27;20053;-88
2024/03/12 00:55:05;;;;;;;1.27;1.17;;;;;;;1.02;100.00;92602.13;2106656;28;20093;-85
2024/03/12 00:56:06;;;;;;;1.48;1.38;;;;;;;1.06;100.00;92602.91;2099536;27;20100;-85
2024/03/12 00:57:07;;;;;;;3.40;1.23;;;;;;;0.97;100.00;92596.09;2115570;27;20062;-86
2024/03/12 00:58:12;;;;;;;1.30;1.10;;;;;;;1.04;100.00;92599.88;2109627;28;20023;-85
2024/03/12 00:59:14;;;;;;;1.40;1.30;;;;;;;0.98;100.00;92597.59;2098543;28;20135;-86
2024/03/12 01:00:17;;;;;;;1.42;1.20;;;;;;;1.09;100.00;92596.88;2102181;27;20078;-84
2024/03/12 01:01:20;;;;;;;1.52;1.20;;;;;;;1.16;100.00;92610.09;2108576;28;20106;-86
2024/03/12 01:02:21;;;;;;;1.17;1.08;;;;;;;1.08;100.00;92604.03;2109216;27;20027;-87
2024/03/12 01:03:23;;;;;;;1.10;1.00;;;;;;;0.97;100.00;92600.59;2103936;28;20028;-86
2024/03/12 01:04:26;;;;;;;1.42;1.33;;;;;;;1.02;100.00;92604.75;2097827;28;20040;-85
2024/03/12 01:05:31;;;;;;;1.23;1.13;;;;;;;0.95;100.00;92603.56;2106029;28;20502;-85
2024/03/12 01:06:34;;;;;;;1.40;1.10;;;;;;;0.94;100.00;92602.06;2094625;28;20032;-88
2024/03/12 01:07:35;;;;;;;2.40;1.20;;;;;;;0.84;100.00;92608.03;2098205;28;20414;-86
2024/03/12 01:08:36;;;;;;;2.05;1.30;;;;;;;0.81;100.00;92606.13;2105998;28;20035;-87
2024/03/12 01:09:39;;;;;;;1.30;1.10;;;;;;;0.82;100.00;92602.38;2096264;28;20098;-87
2024/03/12 01:10:40;;;;;;;1.40;1.30;;;;;;;0.64;100.00;92610.13;2095030;28;20465;-84
2024/03/12 01:11:48;;;;;;;1.10;1.00;;;;;;;0.68;100.00;92604.91;2097069;28;20025;-87
2024/03/12 01:12:51;;;;;;;1.20;1.10;;;;;;;0.83;100.00;92605.75;2097951;28;20017;-89
2024/03/12 01:13:54;;;;;;;0.88;0.80;;;;;;;0.67;100.00;92608.66;2099157;28;20032;-84
2024/03/12 01:14:54;;;;;;;1.30;1.10;;;;;;;0.91;100.00;92610.69;2090224;28;20028;-85
2024/03/12 01:15:55;;;;;;;0.82;0.82;;;;;;;0.88;100.00;92610.66;2120634;27;20433;-86
2024/03/12 01:16:56;;;;;;;0.90;0.90;;;;;;;0.79;100.00;92615.50;2113993;28;20127;-83
2024/03/12 01:17:57;;;;;;;1.38;1.05;;;;;;;0.69;100.00;92609.78;2106305;28;20027;-86
2024/03/12 01:18:58;;;;;;;1.15;1.05;;;;;;;0.80;100.00;92615.16;2114514;28;20042;-86
2024/03/12 01:19:59;;;;;;;0.73;0.73;;;;;;;0.84;100.00;92607.28;2114466;28;20673;-85
2024/03/12 01:21:00;;;;;;;2.10;1.17;;;;;;;0.84;100.00;92602.78;2106380;28;20032;-83
2024/03/12 01:22:04;;;;;;;1.80;1.00;;;;;;;0.73;100.00;92609.81;2110238;28;20119;-86
2024/03/12 01:23:05;;;;;;;0.80;0.80;;;;;;;0.58;100.00;92608.22;2097338;28;20035;-90
2024/03/12 01:24:06;;;;;;;1.10;1.00;;;;;;;0.68;100.00;92615.44;2098471;28;20027;-84
2024/03/12 01:25:07;;;;;;;0.85;0.85;;;;;;;0.70;100.00;92603.44;2098537;28;20036;-87
2024/03/12 01:26:08;;;;;;;1.27;1.05;;;;;;;0.75;100.00;92597.06;2107310;28;20074;-85
2024/03/12 01:27:10;;;;;;;2.30;1.00;;;;;;;0.76;100.00;92603.84;2131329;27;20047;-84
2024/03/12 01:28:12;;;;;;;1.02;0.93;;;;;;;0.67;100.00;92606.03;2124310;27;20027;-85
2024/03/12 01:29:13;;;;;;;1.00;1.00;;;;;;;0.63;100.00;92602.63;2123328;27;20414;-85
2024/03/12 01:30:16;;;;;;;0.93;0.88;;;;;;;0.73;100.00;92604.56;2122952;27;20023;-85
2024/03/12 01:31:17;;;;;;;0.70;0.70;;;;;;;0.67;100.00;92603.41;2115037;27;20776;-87
2024/03/12 01:32:20;;;;;;;1.17;0.90;;;;;;;0.75;100.00;92610.22;2120712;27;20324;-85
2024/03/12 01:33:21;;;;;;;0.85;0.85;;;;;;;0.94;100.00;92609.22;2112517;28;20024;-87
2024/03/12 01:34:22;;;;;;;0.90;0.85;;;;;;;0.92;100.00;92606.19;2094814;28;20484;-85
2024/03/12 01:35:26;;;;;;;1.55;1.10;;;;;;;0.93;100.00;92602.44;2109233;28;20023;-86
2024/03/12 01:36:37;;;;;;;0.98;0.90;;;;;;;0.81;100.00;92600.09;2097676;28;20159;-85
2024/03/12 01:37:43;;;;;;;1.10;1.00;;;;;;;0.81;100.00;92600.09;2104912;28;20806;-86
2024/03/12 01:38:48;;;;;;;1.25;1.23;;;;;;;0.89;100.00;92599.03;2114487;28;20031;-84
2024/03/12 01:39:52;;;;;;;2.30;1.23;;;;;;;0.86;100.00;92603.16;2109226;28;20032;-84
2024/03/12 01:40:53;;;;;;;1.40;1.30;;;;;;;0.96;100.00;92599.81;2098539;28;20106;-85
2024/03/12 01:41:57;;;;;;;1.48;1.38;;;;;;;0.96;100.00;92609.59;2109067;28;20461;-86
2024/03/12 01:43:02;;;;;;;1.50;1.40;;;;;;;0.99;100.00;92606.97;2097974;28;20504;-86
2024/03/12 01:44:03;;;;;;;1.40;1.30;;;;;;;0.83;100.00;92603.13;2097820;28;20029;-84
2024/03/12 01:45:05;;;;;;;1.95;1.17;;;;;;;0.78;100.00;92609.47;2114988;28;20062;-85
2024/03/12 01:46:07;;;;;;;2.80;1.38;;;;;;;0.82;100.00;92612.88;2106071;28;20028;-85
2024/03/12 01:47:13;;;;;;;1.48;1.33;;;;;;;0.83;100.00;92605.75;2090621;28;20082;-86
2024/03/12 01:48:15;;;;;;;1.23;1.10;;;;;;;0.81;100.00;92602.75;2089405;28;20079;-85
2024/03/12 01:49:17;;;;;;;2.03;1.13;;;;;;;0.82;100.00;92605.00;2089718;28;20017;-83
2024/03/12 01:50:20;;;;;;;2.38;1.60;;;;;;;0.83;100.00;92605.75;2098264;28;20028;-83
2024/03/12 01:51:20;;;;;;;1.00;1.00;;;;;;;0.77;100.00;92607.97;2089885;28;20032;-84
2024/03/12 01:52:22;;;;;;;1.20;0.95;;;;;;;0.99;100.00;92606.97;2106118;28;20441;-86
2024/03/12 01:53:23;;;;;;;1.65;0.90;;;;;;;0.96;100.00;92602.44;2109010;28;20411;-86
2024/03/12 01:54:24;;;;;;;0.93;0.90;;;;;;;1.06;100.00;92603.66;2105845;28;20023;-86
2024/03/12 01:55:26;;;;;;;1.08;0.98;;;;;;;1.02;100.00;92615.28;2106232;27;20077;-84
2024/03/12 01:56:27;;;;;;;1.20;1.02;;;;;;;0.48;100.00;92605.16;2109683;28;20039;-87
2024/03/12 01:57:28;;;;;;;1.30;0.90;;;;;;;0.77;100.00;92599.34;2114625;27;20023;-84
2024/03/12 01:58:29;;;;;;;1.17;0.90;;;;;;;0.73;100.00;92601.94;2105910;28;20035;-84
2024/03/12 01:59:30;;;;;;;1.10;1.00;;;;;;;0.53;100.00;92601.44;2105805;28;20090;-85
2024/03/12 02:00:32;;;;;;;0.85;0.85;;;;;;;0.58;100.00;92595.09;2106254;28;20028;-87
2024/03/12 02:01:33;;;;;;;1.15;1.00;;;;;;;0.58;100.00;92595.84;2114417;28;20019;-86
2024/03/12 02:02:34;;;;;;;0.77;0.77;;;;;;;0.65;100.00;92597.75;2097578;28;20028;-88
2024/03/12 02:03:36;;;;;;;1.75;0.90;;;;;;;0.73;100.00;92599.31;2097122;28;20025;-86
2024/03/12 02:04:39;;;;;;;0.90;0.90;;;;;;;0.78;100.00;92596.31;2100407;28;20032;-87
2024/03/12 02:05:41;;;;;;;1.00;0.90;;;;;;;0.97;100.00;92601.34;2097439;28;20028;-84
2024/03/12 02:06:42;;;;;;;0.98;0.90;;;;;;;0.95;100.00;92597.56;2111433;27;20100;-86
2024/03/12 02:07:46;;;;;;;3.15;1.08;;;;;;;0.98;100.00;92602.84;2098796;28;20016;-87
2024/03/12 02:08:52;;;;;;;1.00;1.00;;;;;;;1.10;100.00;92608.91;2106359;28;20024;-86
2024/03/12 02:09:53;;;;;;;1.00;0.90;;;;;;;1.08;100.00;92611.91;2099898;28;20135;-84
2024/03/12 02:10:54;;;;;;;1.10;1.00;;;;;;;1.04;100.00;92610.38;2105820;28;20077;-85
2024/03/12 02:11:55;;;;;;;0.90;0.90;;;;;;;0.97;100.00;92611.88;2119516;27;20051;-88
2024/03/12 02:12:56;;;;;;;0.90;0.80;;;;;;;0.83;100.00;92609.13;2108612;28;20118;-86
2024/03/12 02:13:57;;;;;;;1.20;1.10;;;;;;;0.81;100.00;92615.91;2104884;28;20538;-86
2024/03/12 02:15:03;;;;;;;0.90;0.90;;;;;;;0.69;100.00;92614.31;2105838;28;20031;-85
2024/03/12 02:16:05;;;;;;;1.70;1.10;;;;;;;0.72;100.00;92622.22;2105946;28;20024;-88
2024/03/12 02:17:06;;;;;;;0.80;0.80;;;;;;;0.72;100.00;92621.47;2098132;28;20082;-86
2024/03/12 02:18:08;;;;;;;1.30;0.90;;;;;;;0.69;100.00;92615.06;2105481;28;20094;-83
2024/03/12 02:19:09;;;;;;;1.67;1.00;;;;;;;0.66;100.00;92613.19;2105983;28;20050;-84
2024/03/12 02:20:10;;;;;;;1.40;0.82;;;;;;;0.71;100.00;92625.97;2105954;28;20024;-87
2024/03/12 02:21:11;;;;;;;0.77;0.77;;;;;;;0.66;100.00;92622.91;2107324;28;20031;-88
2024/03/12 02:22:12;;;;;;;0.98;0.90;;;;;;;0.72;100.00;92624.09;2111542;28;20560;-86
2024/03/12 02:23:13;;;;;;;1.10;1.00;;;;;;;0.72;100.00;92618.84;2105532;28;20066;-89
2024/03/12 02:24:14;;;;;;;0.85;0.85;;;;;;;0.63;100.00;92613.91;2095641;28;20050;-85
2024/03/12 02:27:09;;;;;;;;;;;;;;;-0.60;100.00;92623.63;2148643;27;20306;-86
2024/03/12 02:28:10;;;;;;;1.45;1.00;;;;;;;-0.32;100.00;92625.03;2130060;27;19958;-87
2024/03/12 02:29:13;;;;;;;0.90;0.90;;;;;;;-0.35;100.00;92628.38;2113129;27;20023;-85
2024/03/12 02:30:14;;;;;;;1.45;1.02;;;;;;;-0.26;100.00;92632.25;2113735;27;20020;-85
2024/03/12 02:31:15;;;;;;;0.80;0.80;;;;;;;-0.23;100.00;92624.75;2121747;27;20023;-86
2024/03/12 02:32:16;;;;;;;1.00;1.00;;;;;;;-0.40;100.00;92629.47;2121795;27;20050;-84
2024/03/12 02:33:17;;;;;;;0.98;0.98;;;;;;;-0.26;100.00;92624.38;2120678;27;20060;-85
2024/03/12 02:34:18;;;;;;;1.38;1.25;;;;;;;-0.09;100.00;92630.16;2121887;27;20374;-87
2024/03/12 02:35:19;;;;;;;1.30;1.15;;;;;;;-0.18;100.00;92632.31;2117391;28;20160;-86
2024/03/12 02:36:23;;;;;;;1.10;1.00;;;;;;;-0.04;100.00;92630.59;2114198;28;20177;-88
2024/03/12 02:37:25;;;;;;;3.30;1.20;;;;;;;-0.01;100.00;92624.63;2112850;28;20096;-85
2024/03/12 02:38:26;;;;;;;1.10;1.00;;;;;;;0.02;100.00;92630.28;2104764;28;20024;-86
2024/03/12 02:39:27;;;;;;;1.08;1.05;;;;;;;0.29;100.00;92629.03;2120815;28;20027;-89
2024/03/12 02:40:28;;;;;;;1.00;1.00;;;;;;;0.17;100.00;92629.28;2120593;27;20117;-85
2024/03/12 02:41:31;;;;;;;1.30;0.98;;;;;;;0.20;100.00;92628.56;2106449;28;20077;-85
2024/03/12 02:42:31;;;;;;;1.17;1.08;;;;;;;0.20;100.00;92631.19;2109881;28;20025;-86
2024/03/12 02:43:36;;;;;;;1.98;0.95;;;;;;;0.10;100.00;92642.38;2108547;28;20032;-83
2024/03/12 02:44:37;;;;;;;0.98;0.90;;;;;;;0.21;100.00;92624.81;2105452;28;20035;-85
2024/03/12 02:45:38;;;;;;;1.20;1.10;;;;;;;0.23;100.00;92628.59;2121575;27;20023;-85
2024/03/12 02:46:40;;;;;;;1.10;1.00;;;;;;;0.06;100.00;92631.81;2121388;28;20093;-86
2024/03/12 02:47:42;;;;;;;1.40;1.17;;;;;;;0.13;100.00;92636.38;2113108;28;20031;-85
2024/03/12 02:48:43;;;;;;;1.80;1.23;;;;;;;0.13;100.00;92636.38;2104785;28;20024;-84
2024/03/12 02:49:44;;;;;;;2.28;1.02;;;;;;;0.05;100.00;92637.44;2105211;28;20956;-87
2024/03/12 02:50:46;;;;;;;1.10;1.00;;;;;;;0.11;100.00;92634.13;2109945;27;20031;-82
2024/03/12 02:51:51;;;;;;;1.33;1.23;;;;;;;0.12;100.00;92637.50;2049100;27;20419;-85
2024/03/12 02:52:53;;;;;;;1.25;1.20;;;;;;;0.11;100.00;92633.38;2089561;28;20082;-86
2024/03/12 02:53:54;;;;;;;2.60;1.20;;;;;;;0.14;100.00;92640.53;1988513;27;20028;-86
2024/03/12 02:54:55;;;;;;;1.40;1.10;;;;;;;0.16;100.00;92639.03;2063103;28;20032;-88
2024/03/12 02:55:57;;;;;;;1.20;1.10;;;;;;;0.15;100.00;92642.03;2032792;27;22375;-85
2024/03/12 02:56:58;;;;;;;2.15;1.10;;;;;;;0.15;100.00;92637.53;2038480;27;20066;-87
2024/03/12 02:57:59;;;;;;;1.30;1.20;;;;;;;0.17;100.00;92642.41;2092288;28;20038;-86
2024/03/12 02:59:00;;;;;;;1.05;1.05;;;;;;;0.25;100.00;92630.84;2095670;28;20034;-86
2024/03/12 03:00:01;;;;;;;1.02;1.02;;;;;;;0.16;100.00;92644.28;2099985;28;20961;-84
2024/03/12 03:01:03;;;;;;;1.02;0.95;;;;;;;0.16;100.00;92638.28;2117351;28;20140;-85
2024/03/12 03:02:04;;;;;;;1.35;1.20;;;;;;;0.21;100.00;92635.31;2104250;28;20020;-84
2024/03/12 03:03:05;;;;;;;2.33;1.30;;;;;;;0.24;100.00;92629.34;2098557;28;20047;-88
2024/03/12 03:04:08;;;;;;;1.30;1.20;;;;;;;0.27;100.00;92638.41;2106961;27;20027;-83
2024/03/12 03:05:09;;;;;;;2.22;1.23;;;;;;;0.23;100.00;92644.38;2101284;28;20384;-85
2024/03/12 03:06:10;;;;;;;1.58;1.30;;;;;;;0.28;100.00;92638.03;2076547;28;20248;-84
2024/03/12 03:07:11;;;;;;;1.20;1.15;;;;;;;0.28;100.00;92632.03;2073280;28;20055;-84
2024/03/12 03:08:12;;;;;;;1.40;1.30;;;;;;;0.22;100.00;92637.59;2080308;28;20032;-86
2024/03/12 03:09:14;;;;;;;1.50;1.20;;;;;;;0.33;100.00;92635.06;2079926;27;20031;-87
2024/03/12 03:10:15;;;;;;;1.42;1.10;;;;;;;0.30;100.00;92637.66;2078731;27;20231;-85
2024/03/12 03:11:16;;;;;;;1.25;1.15;;;;;;;0.33;100.00;92642.94;1956501;27;23831;-85
2024/03/12 03:12:17;;;;;;;1.45;1.13;;;;;;;0.29;100.00;92638.78;1959637;28;20031;-84
2024/03/12 03:13:18;;;;;;;1.42;1.23;;;;;;;0.40;100.00;92637.75;1963674;28;20024;-87
2024/03/12 03:14:19;;;;;;;1.10;1.05;;;;;;;0.42;100.00;92643.41;1864607;28;21866;-84
2024/03/12 03:15:20;;;;;;;1.30;1.20;;;;;;;0.55;100.00;92637.88;1947423;28;20216;-84
2024/03/12 03:16:22;;;;;;;1.00;0.90;;;;;;;0.59;100.00;92638.66;1975503;28;20032;-87
2024/03/12 03:17:23;;;;;;;1.13;1.10;;;;;;;0.72;100.00;92645.16;1888203;27;20123;-82
2024/03/12 03:18:26;;;;;;;1.10;1.10;;;;;;;0.75;100.00;92642.53;1865839;28;20063;-85
2024/03/12 03:19:27;;;;;;;1.75;1.00;;;;;;;0.61;100.00;92644.28;1878907;27;21909;-86
2024/03/12 03:20:28;;;;;;;1.13;1.10;;;;;;;0.67;100.00;92643.59;1882552;28;20121;-83
2024/03/12 03:21:29;;;;;;;1.10;1.00;;;;;;;0.66;100.00;92647.38;1863556;28;20047;-84
2024/03/12 03:22:30;;;;;;;0.80;0.80;;;;;;;0.46;100.00;92643.44;1939603;28;20027;-84
2024/03/12 03:23:31;;;;;;;1.15;1.05;;;;;;;0.70;100.00;92639.47;2092520;27;23185;-85
2024/03/12 03:24:36;;;;;;;1.15;1.05;;;;;;;1.15;100.00;92640.91;2090253;28;20046;-84
2024/03/12 03:25:37;;;;;;;1.05;0.98;;;;;;;1.10;100.00;92636.00;2065619;27;20032;-87
2024/03/12 03:26:38;;;;;;;1.33;1.10;;;;;;;1.14;100.00;92636.78;2034465;28;20348;-87
2024/03/12 03:27:39;;;;;;;1.50;1.08;;;;;;;1.02;100.00;92644.22;2043802;28;20415;-84
2024/03/12 03:28:40;;;;;;;0.85;0.85;;;;;;;0.89;100.00;92641.88;2045373;28;20051;-84
2024/03/12 03:29:42;;;;;;;1.08;0.95;;;;;;;1.06;100.00;92642.38;2073122;27;20150;-85
2024/03/12 03:30:43;;;;;;;1.42;1.00;;;;;;;1.36;100.00;92634.25;2069572;27;20031;-83
2024/03/12 03:31:48;;;;;;;0.85;0.85;;;;;;;1.47;100.00;92635.81;2082374;27;20062;-84
2024/03/12 03:32:49;;;;;;;2.25;1.00;;;;;;;1.53;100.00;92644.09;2091901;27;20540;-84
2024/03/12 03:33:50;;;;;;;1.50;1.15;;;;;;;1.43;100.00;92634.28;2103986;28;20019;-85
2024/03/12 03:34:54;;;;;;;1.33;1.02;;;;;;;1.35;100.00;92636.13;2112546;28;20031;-84
2024/03/12 03:35:55;;;;;;;2.13;1.05;;;;;;;1.21;100.00;92639.44;2113084;28;20071;-86
2024/03/12 03:37:00;;;;;;;2.13;1.05;;;;;;;1.28;100.00;92644.00;2104347;28;20024;-85
2024/03/12 03:38:01;;;;;;;1.15;1.00;;;;;;;1.26;100.00;92636.44;2102563;28;20020;-84
2024/03/12 03:39:03;;;;;;;1.08;0.98;;;;;;;1.43;100.00;92631.66;2106907;28;20020;-87
2024/03/12 03:40:04;;;;;;;1.48;1.20;;;;;;;1.41;100.00;92633.91;2106945;28;20032;-83
2024/03/12 03:41:07;;;;;;;2.40;1.25;;;;;;;1.63;100.00;92627.59;2102278;28;20031;-86
2024/03/12 03:42:11;;;;;;;1.20;1.10;;;;;;;1.44;100.00;92633.16;2107206;28;20039;-84
2024/03/12 03:43:13;;;;;;;2.13;1.63;;;;;;;1.38;100.00;92630.13;2099095;28;20027;-86
2024/03/12 03:44:14;;;;;;;1.10;1.00;;;;;;;1.33;100.00;92635.75;2107366;28;20024;-84
2024/03/12 03:45:15;;;;;;;1.00;1.00;;;;;;;1.41;100.00;92636.53;2107027;28;20028;-88
2024/03/12 03:46:16;;;;;;;3.33;1.15;;;;;;;1.31;100.00;92626.69;2098770;28;20111;-87
2024/03/12 03:47:17;;;;;;;1.23;1.13;;;;;;;1.29;100.00;92631.59;2098467;28;20031;-84
2024/03/12 03:48:18;;;;;;;1.20;1.10;;;;;;;1.27;100.00;92624.03;2107219;28;20530;-85
2024/03/12 03:49:21;;;;;;;1.17;0.98;;;;;;;1.31;100.00;92627.44;2109560;28;20059;-86
2024/03/12 03:50:31;;;;;;;1.25;1.00;;;;;;;1.51;100.00;92628.69;2107123;28;20055;-86
2024/03/12 03:51:32;;;;;;;1.55;0.98;;;;;;;1.57;100.00;92621.16;2111436;27;20023;-84
2024/03/12 03:52:33;;;;;;;1.45;1.35;;;;;;;1.47;100.00;92637.69;2115386;28;20027;-85
2024/03/12 03:53:34;;;;;;;0.88;0.88;;;;;;;1.69;100.00;92636.66;2102599;28;20039;-86
2024/03/12 03:54:36;;;;;;;0.80;0.80;;;;;;;1.67;100.00;92630.25;2098496;28;20025;-87
2024/03/12 03:55:38;;;;;;;1.33;0.93;;;;;;;1.72;100.00;92633.28;2109095;27;20026;-85
2024/03/12 03:56:40;;;;;;;1.67;0.98;;;;;;;1.57;100.00;92631.69;2119210;27;20023;-88
2024/03/12 03:57:41;;;;;;;1.00;1.00;;;;;;;1.63;100.00;92634.75;2115173;28;20450;-86
2024/03/12 03:58:43;;;;;;;1.10;0.90;;;;;;;1.64;100.00;92644.16;2099534;28;20032;-86
2024/03/12 03:59:44;;;;;;;1.65;1.10;;;;;;;1.77;100.00;92645.34;2098867;28;20101;-86
2024/03/12 04:00:45;;;;;;;1.83;1.10;;;;;;;1.79;100.00;92650.22;2112445;28;20434;-86
2024/03/12 04:01:47;;;;;;;1.52;1.10;;;;;;;1.71;100.00;92646.81;2106628;27;20032;-89
2024/03/12 04:02:48;;;;;;;1.40;1.10;;;;;;;1.76;100.00;92644.59;2114365;28;20115;-87
2024/03/12 04:03:53;;;;;;;1.55;0.90;;;;;;;1.70;100.00;92646.06;2101795;28;20801;-88
2024/03/12 04:04:54;;;;;;;1.40;0.90;;;;;;;1.58;100.00;92646.41;2099543;28;20047;-85
2024/03/12 04:05:56;;;;;;;1.48;0.93;;;;;;;1.80;100.00;92649.09;2098903;28;20142;-85
2024/03/12 04:06:57;;;;;;;0.70;0.70;;;;;;;1.97;100.00;92646.50;2107362;27;20028;-87
2024/03/12 04:08:02;;;;;;;1.70;1.08;;;;;;;1.89;100.00;92655.53;2115268;28;20510;-88
2024/03/12 04:09:04;;;;;;;1.10;1.00;;;;;;;2.01;100.00;92642.00;2100216;28;20031;-86
2024/03/12 04:10:10;;;;;;;1.35;1.25;;;;;;;1.97;100.00;92653.66;2115480;27;20024;-87
2024/03/12 04:11:11;;;;;;;1.27;1.17;;;;;;;2.05;100.00;92651.81;2106617;28;20020;-87
2024/03/12 04:12:12;;;;;;;1.35;0.90;;;;;;;1.83;100.00;92654.38;2106867;28;20023;-85
2024/03/12 04:13:14;;;;;;;1.70;1.00;;;;;;;1.79;100.00;92656.25;2106892;28;20020;-85
2024/03/12 04:14:16;;;;;;;1.05;1.05;;;;;;;1.88;100.00;92648.75;2106985;28;20762;-83
2024/03/12 04:15:18;;;;;;;2.50;1.10;;;;;;;1.84;100.00;92658.50;2107104;28;20024;-86
2024/03/12 04:16:19;;;;;;;1.15;1.02;;;;;;;1.95;100.00;92659.31;2107031;28;20020;-87
2024/03/12 04:17:22;;;;;;;1.17;0.90;;;;;;;1.96;100.00;92663.47;2107016;28;20031;-85
2024/03/12 04:18:22;;;;;;;1.23;1.13;;;;;;;1.94;100.00;92660.44;2115241;28;20409;-86
2024/03/12 04:19:24;;;;;;;0.95;0.93;;;;;;;1.95;100.00;92664.59;2114892;28;20057;-84
2024/03/12 04:20:24;;;;;;;1.25;0.90;;;;;;;1.97;100.00;92661.56;2098067;28;20099;-85
2024/03/12 04:21:26;;;;;;;1.35;1.00;;;;;;;1.99;100.00;92668.00;2106534;28;20020;-86
2024/03/12 04:22:28;;;;;;;0.90;0.90;;;;;;;2.20;100.00;92666.56;2100308;28;20094;-86
2024/03/12 04:23:29;;;;;;;0.95;0.90;;;;;;;2.12;100.00;92665.78;2098609;28;20035;-85
2024/03/12 04:24:31;;;;;;;1.10;1.00;;;;;;;2.04;100.00;92660.84;2098533;28;20134;-85
2024/03/12 04:25:32;;;;;;;1.98;1.00;;;;;;;2.07;100.00;92657.47;2095635;28;20078;-85
2024/03/12 04:26:37;;;;;;;1.00;1.00;;;;;;;2.08;100.00;92664.25;2099477;28;20040;-85
2024/03/12 04:27:38;;;;;;;1.27;1.17;;;;;;;2.17;100.00;92665.41;2115041;28;20058;-89
2024/03/12 04:28:40;;;;;;;1.13;1.10;;;;;;;2.08;100.00;92669.53;2106542;28;20040;-85
2024/03/12 04:29:41;;;;;;;1.30;1.13;;;;;;;1.96;100.00;92665.34;2106750;28;20145;-85
2024/03/12 04:30:43;;;;;;;1.08;1.08;;;;;;;2.07;100.00;92676.69;2103059;28;20149;-84
2024/03/12 04:31:44;;;;;;;1.00;1.00;;;;;;;1.99;100.00;92678.53;2100014;28;20586;-87
2024/03/12 04:32:47;;;;;;;0.95;0.90;;;;;;;2.08;100.00;92672.16;2102063;28;20031;-87
2024/03/12 04:33:53;;;;;;;1.27;1.13;;;;;;;2.14;100.00;92681.22;2100304;28;20033;-86
2024/03/12 04:34:55;;;;;;;0.98;0.93;;;;;;;1.96;100.00;92676.63;2091353;28;20191;-84
2024/03/12 04:35:56;;;;;;;1.10;1.00;;;;;;;2.08;100.00;92675.56;2103133;27;20113;-84
2024/03/12 04:36:58;;;;;;;1.00;1.00;;;;;;;2.23;100.00;92677.09;2115084;28;20076;-85
2024/03/12 04:38:02;;;;;;;0.85;0.85;;;;;;;2.28;100.00;92678.59;2115354;28;20052;-83
2024/03/12 04:40:25;;;;;;;1.00;0.90;;;;;;;2.36;100.00;92680.13;2118243;27;20105;-86
2024/03/12 04:41:33;;;;;;;0.98;0.98;;;;;;;2.35;100.00;92677.88;2106525;28;20079;-85
2024/03/12 04:42:37;;;;;;;1.42;0.90;;;;;;;2.31;100.00;92680.50;2106592;28;20032;-89
2024/03/12 04:43:41;;;;;;;0.80;0.80;;;;;;;2.38;100.00;92683.16;2107088;28;20078;-86
2024/03/12 04:44:42;;;;;;;1.10;0.88;;;;;;;2.39;100.00;92686.53;2098653;28;20409;-86
2024/03/12 04:45:43;;;;;;;0.90;0.90;;;;;;;2.35;100.00;92691.06;2098267;28;20028;-85
2024/03/12 04:46:44;;;;;;;1.25;1.15;;;;;;;2.36;100.00;92688.03;2111289;28;20387;-86
2024/03/12 04:47:45;;;;;;;1.67;1.00;;;;;;;2.47;100.00;92690.72;2115027;28;20161;-87
2024/03/12 04:48:46;;;;;;;1.70;0.80;;;;;;;2.51;100.00;92683.56;2106447;28;20031;-86
2024/03/12 04:49:47;;;;;;;1.20;0.80;;;;;;;2.51;100.00;92688.84;2105685;28;20027;-84
2024/03/12 04:50:48;;;;;;;0.93;0.93;;;;;;;2.42;100.00;92693.72;2097762;28;20111;-87
2024/03/12 04:51:50;;;;;;;0.70;0.70;;;;;;;2.47;100.00;92693.34;2098096;28;20016;-86
2024/03/12 04:52:51;;;;;;;1.65;0.73;;;;;;;2.37;100.00;92700.13;2106735;28;20031;-85
2024/03/12 04:53:52;;;;;;;0.70;0.60;;;;;;;2.38;100.00;92698.22;2114656;28;20436;-87
2024/03/12 04:54:53;;;;;;;1.65;0.75;;;;;;;2.59;100.00;92694.84;2114679;28;20019;-85